Portada
METAR-TAF:

METAR-TAF

Aeroports :

Gibraltar, Gibraltar

latitud: 36-09N, longitud: 005-21W, altitud: 5 m

Observació

L'informe es va fer fa 37 minuts, a les 09:20 UTC
Vent 18 kt del Est
Temperatura 16°C
Humitat 72%
Pressió 1028 hPa
Visibilitat 10 km o més
Núvols disperses a una alçada de 2000 ft

METAR: LXGB 210920Z 08018KT 9999 SCT020 16/11 Q1028 TEMPO FEW020

Hora: 10:57 (09:57 UTC)

Pronòstic

L'informe es va fer fa 2 hores i 19 minuts, a les 07:38 UTC
Pronòstic vàlid del 21 a les 09 UTC al 21 a les 18 UTC
Vent 20 kt del Est amb ràfegues de 30 kt
Visibilitat 10 km o més
Escasses núvols a una alçada de 1800 ft
Temporalment
l' 21 a les 09 UTC al 21 a les 18 UTC
Núvols disperses a una alçada de 1800 ft

TAF: LXGB 210738Z 2109/2118 09020G30KT 9999 FEW018 520002 TEMPO 2109/2118 SCT018

Observacions i pronòstics meteorològics de més de 4000 aeroports (METAR i TAF).

Les estacions disponibles són els punts grocs i vermells al mapa.

Posi el ratolí al punt desitjat per veure el nom de l'estació.

Feu clic per veure les observacions i els pronòstics meteorològics.

Per canviar el mapa: feu clic els botons verds amb una creu de color negre per apropar; al botó verd amb un guió per allunyar la imatge; o en les fletxes verdes per a mapes adjacents.


METAR-TAF: